createdAt,value
2023-01-23T00:00:35.126Z,981.90
2023-01-23T00:01:35.054Z,981.87
2023-01-23T00:02:35.042Z,981.86
2023-01-23T00:03:35.010Z,981.86
2023-01-23T00:04:34.997Z,981.88
2023-01-23T00:05:34.972Z,981.90
2023-01-23T00:06:34.953Z,981.86
2023-01-23T00:07:34.937Z,981.84
2023-01-23T00:08:34.916Z,981.85
2023-01-23T00:09:34.900Z,981.80
2023-01-23T00:10:34.993Z,981.85
2023-01-23T00:11:34.920Z,981.79
2023-01-23T00:12:34.840Z,981.78
2023-01-23T00:13:34.824Z,981.79
2023-01-23T00:14:34.805Z,981.79
2023-01-23T00:15:34.857Z,981.73
2023-01-23T00:16:34.769Z,981.73
2023-01-23T00:17:34.752Z,981.69
2023-01-23T00:18:34.728Z,981.73
2023-01-23T00:19:34.714Z,981.74
2023-01-23T00:20:34.693Z,981.76
2023-01-23T00:21:34.680Z,981.71
2023-01-23T00:22:34.655Z,981.72
2023-01-23T00:23:34.639Z,981.69
2023-01-23T00:24:34.617Z,981.67
2023-01-23T00:25:34.602Z,981.66
2023-01-23T00:26:34.725Z,981.64
2023-01-23T00:27:34.566Z,981.62
2023-01-23T00:28:34.546Z,981.69
2023-01-23T00:30:34.544Z,981.69
2023-01-23T00:31:34.686Z,981.67
2023-01-23T00:32:34.476Z,981.67
2023-01-23T00:33:34.454Z,981.67
2023-01-23T00:34:34.437Z,981.68
2023-01-23T00:35:34.417Z,981.68
2023-01-23T00:36:34.411Z,981.69
2023-01-23T00:37:34.379Z,981.68
2023-01-23T00:38:34.383Z,981.65
2023-01-23T00:39:34.349Z,981.64
2023-01-23T00:40:34.329Z,981.64
2023-01-23T00:41:34.319Z,981.62
2023-01-23T00:42:34.405Z,981.63
2023-01-23T00:43:34.288Z,981.65
2023-01-23T00:44:34.253Z,981.63
2023-01-23T00:45:34.235Z,981.65
2023-01-23T00:46:34.340Z,981.68
2023-01-23T00:47:34.198Z,981.72
2023-01-23T00:48:34.229Z,981.71
2023-01-23T00:49:34.157Z,981.66
2023-01-23T00:50:34.141Z,981.66
2023-01-23T00:51:34.128Z,981.66
2023-01-23T00:52:34.109Z,981.69
2023-01-23T00:53:34.084Z,981.60
2023-01-23T00:54:34.078Z,981.64
2023-01-23T00:55:34.050Z,981.62
2023-01-23T00:56:34.036Z,981.64
2023-01-23T00:57:34.010Z,981.65
2023-01-23T00:58:34.113Z,981.67
2023-01-23T00:59:33.973Z,981.65
2023-01-23T01:00:33.958Z,981.64
2023-01-23T01:01:33.961Z,981.67
2023-01-23T01:02:33.937Z,981.66
2023-01-23T01:03:33.897Z,981.67
2023-01-23T01:04:33.887Z,981.66
2023-01-23T01:05:33.869Z,981.63
2023-01-23T01:06:33.848Z,981.68
2023-01-23T01:07:33.827Z,981.67
2023-01-23T01:08:33.815Z,981.68
2023-01-23T01:09:33.806Z,981.72
2023-01-23T01:10:33.779Z,981.79
2023-01-23T01:11:33.751Z,981.78
2023-01-23T01:12:33.739Z,981.78
2023-01-23T01:13:33.732Z,981.81
2023-01-23T01:14:33.810Z,981.82
2023-01-23T01:15:33.677Z,981.82
2023-01-23T01:16:33.703Z,981.81
2023-01-23T01:17:33.641Z,981.81
2023-01-23T01:18:33.623Z,981.83
2023-01-23T01:19:33.602Z,981.82
2023-01-23T01:20:33.594Z,981.78
2023-01-23T01:21:33.569Z,981.80
2023-01-23T01:22:33.550Z,981.78
2023-01-23T01:23:33.534Z,981.85
2023-01-23T01:24:33.519Z,981.83
2023-01-23T01:25:33.494Z,981.85
2023-01-23T01:26:33.477Z,981.83
2023-01-23T01:27:33.458Z,981.85
2023-01-23T01:28:33.443Z,981.86
2023-01-23T01:29:33.419Z,981.86
2023-01-23T01:30:33.551Z,981.89
2023-01-23T01:31:33.539Z,981.85
2023-01-23T01:32:33.367Z,981.86
2023-01-23T01:33:33.347Z,981.84
2023-01-23T01:34:33.333Z,981.85
2023-01-23T01:35:33.308Z,981.86
2023-01-23T01:36:33.296Z,981.89
2023-01-23T01:37:33.271Z,981.94
2023-01-23T01:38:33.256Z,981.93
2023-01-23T01:39:33.239Z,981.90
2023-01-23T01:40:33.220Z,981.92
2023-01-23T01:41:33.198Z,981.93
2023-01-23T01:42:33.181Z,981.93
2023-01-23T01:43:33.159Z,981.92
2023-01-23T01:44:33.148Z,981.89
2023-01-23T01:45:33.123Z,981.89
2023-01-23T01:46:33.313Z,981.84
2023-01-23T01:47:33.085Z,981.93
2023-01-23T01:48:33.071Z,981.92
2023-01-23T01:49:33.049Z,981.91
2023-01-23T01:50:33.034Z,981.96
2023-01-23T01:51:33.020Z,981.90
2023-01-23T01:52:33.000Z,981.93
2023-01-23T01:53:32.977Z,981.92
2023-01-23T01:54:32.965Z,981.94
2023-01-23T01:55:32.938Z,981.96
2023-01-23T01:56:32.932Z,981.99
2023-01-23T01:57:32.902Z,981.91
2023-01-23T01:58:32.893Z,981.93
2023-01-23T01:59:32.925Z,981.93
2023-01-23T02:00:32.869Z,981.93
2023-01-23T02:01:32.834Z,981.92
2023-01-23T02:02:32.936Z,981.91
2023-01-23T02:03:32.794Z,981.88
2023-01-23T02:04:32.777Z,981.82
2023-01-23T02:05:32.755Z,981.81
2023-01-23T02:06:32.749Z,981.79
2023-01-23T02:07:32.717Z,981.84
2023-01-23T02:08:32.701Z,981.80
2023-01-23T02:09:32.680Z,981.76
2023-01-23T02:10:32.674Z,981.79
2023-01-23T02:11:32.659Z,981.77
2023-01-23T02:12:32.629Z,981.73
2023-01-23T02:13:32.669Z,981.75
2023-01-23T02:14:32.591Z,981.74
2023-01-23T02:15:32.570Z,981.75
2023-01-23T02:16:32.566Z,981.71
2023-01-23T02:17:32.558Z,981.78
2023-01-23T02:18:32.634Z,981.83
2023-01-23T02:19:32.494Z,981.89
2023-01-23T02:20:32.591Z,981.86
2023-01-23T02:21:32.459Z,981.83
2023-01-23T02:22:32.444Z,981.81
2023-01-23T02:23:32.422Z,981.76
2023-01-23T02:24:32.409Z,981.77
2023-01-23T02:25:32.385Z,981.74
2023-01-23T02:26:32.369Z,981.90
2023-01-23T02:27:32.348Z,981.83
2023-01-23T02:28:32.334Z,981.81
2023-01-23T02:29:32.310Z,981.86
2023-01-23T02:30:32.301Z,981.83
2023-01-23T02:31:32.427Z,981.79
2023-01-23T02:32:32.262Z,981.77
2023-01-23T02:33:32.241Z,981.78
2023-01-23T02:34:32.338Z,981.79
2023-01-23T02:35:32.197Z,981.81
2023-01-23T02:36:32.179Z,981.79
2023-01-23T02:37:32.163Z,981.71
2023-01-23T02:38:32.141Z,981.70
2023-01-23T02:39:32.125Z,981.68
2023-01-23T02:40:32.102Z,981.66
2023-01-23T02:41:32.089Z,981.69
2023-01-23T02:42:32.067Z,981.66
2023-01-23T02:43:32.054Z,981.64
2023-01-23T02:44:32.031Z,981.64
2023-01-23T02:45:32.040Z,981.60
2023-01-23T02:46:32.014Z,981.61
2023-01-23T02:47:31.977Z,981.61
2023-01-23T02:48:31.952Z,981.65
2023-01-23T02:49:31.939Z,981.66
2023-01-23T02:50:32.033Z,981.63
2023-01-23T02:51:31.899Z,981.65
2023-01-23T02:52:31.882Z,981.67
2023-01-23T02:53:31.863Z,981.62
2023-01-23T02:54:31.842Z,981.66
2023-01-23T02:55:31.824Z,981.61
2023-01-23T02:56:31.801Z,981.62
2023-01-23T02:57:31.794Z,981.62
2023-01-23T02:58:31.770Z,981.60
2023-01-23T02:59:31.750Z,981.65
2023-01-23T03:00:31.727Z,981.63
2023-01-23T03:01:31.711Z,981.64
2023-01-23T03:02:31.769Z,981.60
2023-01-23T03:03:31.723Z,981.62
2023-01-23T03:04:31.657Z,981.59
2023-01-23T03:05:31.637Z,981.59
2023-01-23T03:06:31.727Z,981.63
2023-01-23T03:07:31.604Z,981.71
2023-01-23T03:08:31.576Z,981.73
2023-01-23T03:09:31.561Z,981.66
2023-01-23T03:10:31.538Z,981.67
2023-01-23T03:11:31.526Z,981.68
2023-01-23T03:12:31.501Z,981.69
2023-01-23T03:13:31.522Z,981.61
2023-01-23T03:14:31.465Z,981.67
2023-01-23T03:15:31.450Z,981.69
2023-01-23T03:16:31.489Z,981.67
2023-01-23T03:17:31.413Z,981.72
2023-01-23T03:18:31.392Z,981.74
2023-01-23T03:19:31.377Z,981.72
2023-01-23T03:20:31.351Z,981.69
2023-01-23T03:21:31.336Z,981.65
2023-01-23T03:22:31.434Z,981.61
2023-01-23T03:23:31.299Z,981.62
2023-01-23T03:24:31.280Z,981.58
2023-01-23T03:25:31.265Z,981.66
2023-01-23T03:26:31.243Z,981.61
2023-01-23T03:27:31.228Z,981.64
2023-01-23T03:28:31.201Z,981.61
2023-01-23T03:29:31.189Z,981.62
2023-01-23T03:30:31.231Z,981.63
2023-01-23T03:31:31.235Z,981.65
2023-01-23T03:32:31.127Z,981.61
2023-01-23T03:33:31.111Z,981.60
2023-01-23T03:34:31.088Z,981.63
2023-01-23T03:35:31.077Z,981.64
2023-01-23T03:36:31.052Z,981.61
2023-01-23T03:37:31.044Z,981.65
2023-01-23T03:38:31.129Z,981.60
2023-01-23T03:39:31.010Z,981.60
2023-01-23T03:40:30.979Z,981.69
2023-01-23T03:41:30.964Z,981.67
2023-01-23T03:42:30.939Z,981.71
2023-01-23T03:43:30.924Z,981.74
2023-01-23T03:44:30.905Z,981.76
2023-01-23T03:45:30.963Z,981.76
2023-01-23T03:46:30.868Z,981.75
2023-01-23T03:47:30.846Z,981.72
2023-01-23T03:48:30.826Z,981.75
2023-01-23T03:49:30.816Z,981.81
2023-01-23T03:50:30.791Z,981.77
2023-01-23T03:51:30.795Z,981.81
2023-01-23T03:52:30.751Z,981.80
2023-01-23T03:53:30.734Z,981.77
2023-01-23T03:54:30.821Z,981.80
2023-01-23T03:55:30.698Z,981.82
2023-01-23T03:56:30.674Z,981.80
2023-01-23T03:57:30.660Z,981.81
2023-01-23T03:58:30.640Z,981.81
2023-01-23T03:59:30.620Z,981.80
2023-01-23T04:00:30.598Z,981.84
2023-01-23T04:01:30.587Z,981.81
2023-01-23T04:02:30.609Z,981.76
2023-01-23T04:03:30.545Z,981.83
2023-01-23T04:04:30.525Z,981.81
2023-01-23T04:05:30.518Z,981.84
2023-01-23T04:06:30.486Z,981.78
2023-01-23T04:07:30.470Z,981.80
2023-01-23T04:08:30.448Z,981.81
2023-01-23T04:09:30.450Z,981.73
2023-01-23T04:10:30.525Z,981.79
2023-01-23T04:11:30.396Z,981.82
2023-01-23T04:12:30.388Z,981.73
2023-01-23T04:13:30.362Z,981.77
2023-01-23T04:14:30.339Z,981.73
2023-01-23T04:15:30.318Z,981.74
2023-01-23T04:16:30.350Z,981.73
2023-01-23T04:17:30.381Z,981.75
2023-01-23T04:18:30.259Z,981.71
2023-01-23T04:19:30.248Z,981.74
2023-01-23T04:20:30.224Z,981.76
2023-01-23T04:21:30.206Z,981.75
2023-01-23T04:22:30.183Z,981.77
2023-01-23T04:23:30.174Z,981.77
2023-01-23T04:24:30.145Z,981.75
2023-01-23T04:25:30.130Z,981.72
2023-01-23T04:26:30.226Z,981.78
2023-01-23T04:27:30.090Z,981.78
2023-01-23T04:28:30.071Z,981.79
2023-01-23T04:29:30.057Z,981.79
2023-01-23T04:30:30.087Z,981.91
2023-01-23T04:31:30.138Z,981.84
2023-01-23T04:32:29.992Z,981.84
2023-01-23T04:33:29.996Z,981.81
2023-01-23T04:34:29.959Z,981.83
2023-01-23T04:35:29.941Z,981.78
2023-01-23T04:36:29.922Z,981.82
2023-01-23T04:37:29.902Z,981.79
2023-01-23T04:38:29.880Z,981.83
2023-01-23T04:39:29.867Z,981.81
2023-01-23T04:40:29.841Z,981.84
2023-01-23T04:41:29.826Z,981.83
2023-01-23T04:42:29.918Z,981.81
2023-01-23T04:43:29.788Z,981.81
2023-01-23T04:44:29.767Z,981.84
2023-01-23T04:45:29.758Z,981.80
2023-01-23T04:46:29.727Z,981.83
2023-01-23T04:47:29.716Z,981.88
2023-01-23T04:48:29.690Z,981.84
2023-01-23T04:49:29.686Z,981.81
2023-01-23T04:50:29.652Z,981.82
2023-01-23T04:51:29.636Z,981.85
2023-01-23T04:52:29.617Z,981.85
2023-01-23T04:53:29.600Z,981.87
2023-01-23T04:54:29.576Z,981.80
2023-01-23T04:55:29.560Z,981.81
2023-01-23T04:56:29.545Z,981.83
2023-01-23T04:57:29.523Z,981.78
2023-01-23T04:58:29.617Z,981.75
2023-01-23T04:59:29.485Z,981.74
2023-01-23T05:00:29.474Z,981.86
2023-01-23T05:01:29.515Z,981.75
2023-01-23T05:02:29.488Z,981.78
2023-01-23T05:03:29.406Z,981.78
2023-01-23T05:04:29.388Z,981.75
2023-01-23T05:05:29.386Z,981.79
2023-01-23T05:06:29.345Z,981.74
2023-01-23T05:07:29.331Z,981.77
2023-01-23T05:08:29.315Z,981.77
2023-01-23T05:09:29.292Z,981.73
2023-01-23T05:10:29.270Z,981.73
2023-01-23T05:11:29.256Z,981.70
2023-01-23T05:12:29.231Z,981.72
2023-01-23T05:13:29.217Z,981.74
2023-01-23T05:14:29.306Z,981.74
2023-01-23T05:15:30.870Z,981.69
2023-01-23T05:16:29.160Z,981.63
2023-01-23T05:17:29.139Z,981.64
2023-01-23T05:18:29.115Z,981.66
2023-01-23T05:19:29.099Z,981.63
2023-01-23T05:20:29.083Z,981.72
2023-01-23T05:21:29.065Z,981.72
2023-01-23T05:22:29.041Z,981.71
2023-01-23T05:23:29.026Z,981.78
2023-01-23T05:24:29.001Z,981.80
2023-01-23T05:25:28.996Z,981.75
2023-01-23T05:26:28.963Z,981.72
2023-01-23T05:27:28.945Z,981.83
2023-01-23T05:28:28.921Z,981.81
2023-01-23T05:29:28.906Z,981.81
2023-01-23T05:30:29.045Z,981.81
2023-01-23T05:31:29.011Z,981.78
2023-01-23T05:32:28.847Z,981.78
2023-01-23T05:33:28.831Z,981.82
2023-01-23T05:34:28.807Z,981.82
2023-01-23T05:35:28.796Z,981.88
2023-01-23T05:36:28.767Z,982.01
2023-01-23T05:37:28.753Z,981.86
2023-01-23T05:38:28.729Z,981.94
2023-01-23T05:39:28.715Z,982.09
2023-01-23T05:40:28.695Z,981.95
2023-01-23T05:41:28.675Z,981.98
2023-01-23T05:42:28.651Z,982.10
2023-01-23T05:43:28.635Z,982.14
2023-01-23T05:44:28.614Z,982.08
2023-01-23T05:45:28.597Z,982.09
2023-01-23T05:46:28.771Z,982.13
2023-01-23T05:47:28.562Z,982.16
2023-01-23T05:48:28.535Z,982.31
2023-01-23T05:49:28.522Z,982.16
2023-01-23T05:50:28.499Z,982.27
2023-01-23T05:51:28.478Z,982.23
2023-01-23T05:52:28.510Z,982.19
2023-01-23T05:53:28.444Z,982.14
2023-01-23T05:54:28.417Z,982.13
2023-01-23T05:55:28.402Z,982.11
2023-01-23T05:56:28.378Z,982.20
2023-01-23T05:57:28.363Z,982.21
2023-01-23T05:58:28.337Z,982.21
2023-01-23T05:59:28.333Z,982.18
2023-01-23T06:00:28.304Z,982.25
2023-01-23T06:01:28.283Z,982.35
2023-01-23T06:02:28.394Z,982.44
2023-01-23T06:03:28.250Z,982.42
2023-01-23T06:04:28.220Z,982.28
2023-01-23T06:05:28.207Z,982.25
2023-01-23T06:06:28.178Z,982.31
2023-01-23T06:07:28.168Z,982.33
2023-01-23T06:08:28.143Z,982.30
2023-01-23T06:09:28.123Z,982.34
2023-01-23T06:10:28.099Z,982.28
2023-01-23T06:11:28.087Z,982.30
2023-01-23T06:12:28.062Z,982.31
2023-01-23T06:13:28.064Z,982.37
2023-01-23T06:14:28.022Z,982.25
2023-01-23T06:15:28.108Z,982.33
2023-01-23T06:16:27.990Z,982.46
2023-01-23T06:17:27.972Z,982.36
2023-01-23T06:18:28.052Z,982.33
2023-01-23T06:19:27.925Z,982.29
2023-01-23T06:20:27.914Z,982.34
2023-01-23T06:21:27.884Z,982.42
2023-01-23T06:22:29.502Z,982.49
2023-01-23T06:23:27.849Z,982.31
2023-01-23T06:24:27.823Z,982.41
2023-01-23T06:25:27.854Z,982.33
2023-01-23T06:26:27.782Z,982.34
2023-01-23T06:27:27.764Z,982.42
2023-01-23T06:28:27.744Z,982.39
2023-01-23T06:29:27.729Z,982.45
2023-01-23T06:30:27.704Z,982.39
2023-01-23T06:31:27.810Z,982.50
2023-01-23T06:32:27.672Z,982.39
2023-01-23T06:33:27.647Z,982.42
2023-01-23T06:34:27.739Z,982.34
2023-01-23T06:35:27.607Z,982.40
2023-01-23T06:36:27.602Z,982.38
2023-01-23T06:37:27.626Z,982.40
2023-01-23T06:38:27.543Z,982.39
2023-01-23T06:39:27.526Z,982.43
2023-01-23T06:40:27.517Z,982.46
2023-01-23T06:41:27.487Z,982.49
2023-01-23T06:42:27.463Z,982.47
2023-01-23T06:43:27.465Z,982.50
2023-01-23T06:44:27.425Z,982.49
2023-01-23T06:45:27.408Z,982.43
2023-01-23T06:46:27.453Z,982.48
2023-01-23T06:47:27.369Z,982.57
2023-01-23T06:48:27.346Z,982.49
2023-01-23T06:49:27.346Z,982.55
2023-01-23T06:50:27.428Z,982.50
2023-01-23T06:51:27.429Z,982.49
2023-01-23T06:52:27.270Z,982.52
2023-01-23T06:53:27.248Z,982.58
2023-01-23T06:54:27.431Z,982.63
2023-01-23T06:55:27.210Z,982.56
2023-01-23T06:56:27.190Z,982.61
2023-01-23T06:57:27.166Z,982.60
2023-01-23T06:58:27.149Z,982.57
2023-01-23T06:59:27.128Z,982.60
2023-01-23T07:00:27.109Z,982.58
2023-01-23T07:01:27.119Z,982.63
2023-01-23T07:02:27.069Z,982.57
2023-01-23T07:03:27.047Z,982.60
2023-01-23T07:04:27.030Z,982.57
2023-01-23T07:05:27.008Z,982.60
2023-01-23T07:06:27.107Z,982.56
2023-01-23T07:07:26.966Z,982.57
2023-01-23T07:08:26.951Z,982.52
2023-01-23T07:09:26.927Z,982.55
2023-01-23T07:10:26.913Z,982.62
2023-01-23T07:11:26.900Z,982.66
2023-01-23T07:12:26.875Z,982.61
2023-01-23T07:13:26.852Z,982.62
2023-01-23T07:14:26.838Z,982.64
2023-01-23T07:15:26.808Z,982.66
2023-01-23T07:16:26.811Z,982.62
2023-01-23T07:17:26.770Z,982.83
2023-01-23T07:18:26.753Z,982.62
2023-01-23T07:19:26.729Z,982.58
2023-01-23T07:20:26.765Z,982.58
2023-01-23T07:21:26.695Z,982.55
2023-01-23T07:22:26.797Z,982.53
2023-01-23T07:23:26.651Z,982.58
2023-01-23T07:24:26.635Z,982.56
2023-01-23T07:25:26.629Z,982.50
2023-01-23T07:26:26.592Z,982.51
2023-01-23T07:27:26.568Z,982.53
2023-01-23T07:28:26.553Z,982.47
2023-01-23T07:29:26.533Z,982.51
2023-01-23T07:30:26.549Z,982.49
2023-01-23T07:31:26.517Z,982.53
2023-01-23T07:32:26.473Z,982.59
2023-01-23T07:33:26.448Z,982.57
2023-01-23T07:34:26.437Z,982.55
2023-01-23T07:35:26.408Z,982.59
2023-01-23T07:36:26.395Z,982.56
2023-01-23T07:37:26.375Z,982.66
2023-01-23T07:38:26.477Z,982.64
2023-01-23T07:39:26.333Z,982.67
2023-01-23T07:40:26.315Z,982.80
2023-01-23T07:41:26.301Z,982.69
2023-01-23T07:42:26.291Z,982.70
2023-01-23T07:43:26.259Z,982.72
2023-01-23T07:44:26.234Z,982.63
2023-01-23T07:45:26.212Z,982.74
2023-01-23T07:46:26.219Z,982.72
2023-01-23T07:47:26.183Z,982.79
2023-01-23T07:48:26.153Z,982.76
2023-01-23T07:49:26.135Z,982.74
2023-01-23T07:50:26.114Z,982.83
2023-01-23T07:52:26.089Z,982.80
2023-01-23T07:53:26.056Z,982.88
2023-01-23T07:54:26.145Z,982.84
2023-01-23T07:55:26.031Z,982.83
2023-01-23T07:56:25.996Z,982.77
2023-01-23T07:57:25.986Z,982.81
2023-01-23T07:58:25.955Z,982.85
2023-01-23T07:59:25.947Z,982.84
2023-01-23T08:00:29.206Z,982.82
2023-01-23T08:01:25.899Z,982.84
2023-01-23T08:02:25.870Z,982.82
2023-01-23T08:03:25.859Z,982.80
2023-01-23T08:04:25.833Z,982.79
2023-01-23T08:05:25.822Z,982.78
2023-01-23T08:06:25.792Z,982.82
2023-01-23T08:07:25.775Z,982.81
2023-01-23T08:08:25.750Z,982.78
2023-01-23T08:09:25.740Z,982.78
2023-01-23T08:10:25.877Z,982.87
2023-01-23T08:11:25.697Z,982.84
2023-01-23T08:12:25.675Z,982.80
2023-01-23T08:13:25.657Z,982.81
2023-01-23T08:14:25.632Z,982.88
2023-01-23T08:15:25.615Z,982.92
2023-01-23T08:16:25.622Z,982.88
2023-01-23T08:17:25.578Z,982.85
2023-01-23T08:18:25.557Z,982.87
2023-01-23T08:19:25.543Z,982.82
2023-01-23T08:20:25.517Z,982.85
2023-01-23T08:21:25.497Z,982.84
2023-01-23T08:22:25.473Z,982.78
2023-01-23T08:23:25.461Z,982.80
2023-01-23T08:24:25.437Z,982.85
2023-01-23T08:25:25.419Z,982.75
2023-01-23T08:26:25.516Z,982.76
2023-01-23T08:27:25.441Z,982.78
2023-01-23T08:28:25.357Z,982.73
2023-01-23T08:29:25.337Z,982.71
2023-01-23T08:30:25.321Z,982.72
2023-01-23T08:31:25.480Z,982.64
2023-01-23T08:32:25.275Z,982.70
2023-01-23T08:33:25.261Z,982.60
2023-01-23T08:34:25.239Z,982.57
2023-01-23T08:35:25.241Z,982.52
2023-01-23T08:36:25.217Z,982.54
2023-01-23T08:37:25.181Z,982.51
2023-01-23T08:38:25.157Z,982.53
2023-01-23T08:39:25.141Z,982.51
2023-01-23T08:40:25.122Z,982.55
2023-01-23T08:41:25.100Z,982.48
2023-01-23T08:42:25.190Z,982.52
2023-01-23T08:43:25.061Z,982.51
2023-01-23T08:44:25.040Z,982.57
2023-01-23T08:45:25.090Z,982.56
2023-01-23T08:46:24.999Z,982.51
2023-01-23T08:47:24.992Z,982.45
2023-01-23T08:48:24.972Z,982.38
2023-01-23T08:49:24.948Z,982.42
2023-01-23T08:50:24.934Z,982.35
2023-01-23T08:51:24.915Z,982.39
2023-01-23T08:52:24.879Z,982.38
2023-01-23T08:53:24.875Z,982.42
2023-01-23T08:54:24.839Z,982.47
2023-01-23T08:55:24.823Z,982.49
2023-01-23T08:56:24.808Z,982.45
2023-01-23T08:57:24.785Z,982.35
2023-01-23T08:58:24.891Z,982.51
2023-01-23T08:59:24.764Z,982.34
2023-01-23T09:00:24.731Z,982.34
2023-01-23T09:01:24.795Z,982.42
2023-01-23T09:02:24.784Z,982.42
2023-01-23T09:03:24.705Z,982.50
2023-01-23T09:04:24.653Z,982.39
2023-01-23T09:05:24.635Z,982.33
2023-01-23T09:06:24.603Z,982.30
2023-01-23T09:07:24.587Z,982.35
2023-01-23T09:08:24.568Z,982.34
2023-01-23T09:09:24.549Z,982.56
2023-01-23T09:10:24.526Z,982.37
2023-01-23T09:11:24.512Z,982.30
2023-01-23T09:12:24.487Z,982.24
2023-01-23T09:13:24.471Z,982.38
2023-01-23T09:14:24.590Z,982.42
2023-01-23T09:15:24.433Z,982.41
2023-01-23T09:16:24.430Z,982.43
2023-01-23T09:17:24.392Z,982.41
2023-01-23T09:18:24.366Z,982.39
2023-01-23T09:19:24.352Z,982.52
2023-01-23T09:20:24.393Z,982.62
2023-01-23T09:21:24.313Z,982.53
2023-01-23T09:22:24.289Z,982.46
2023-01-23T09:23:24.298Z,982.50
2023-01-23T09:24:24.283Z,982.53
2023-01-23T09:25:24.276Z,982.55
2023-01-23T09:26:24.234Z,982.53
2023-01-23T09:27:24.195Z,982.53
2023-01-23T09:28:24.172Z,982.48
2023-01-23T09:29:24.155Z,982.46
2023-01-23T09:30:24.428Z,982.51
2023-01-23T09:31:24.132Z,982.49
2023-01-23T09:32:24.093Z,982.51
2023-01-23T09:33:24.078Z,982.50
2023-01-23T09:34:24.064Z,982.45
2023-01-23T09:35:24.037Z,982.57
2023-01-23T09:36:41.289Z,982.45
2023-01-23T09:37:23.997Z,982.54
2023-01-23T09:38:23.975Z,982.45
2023-01-23T09:39:23.975Z,982.51
2023-01-23T09:40:23.935Z,982.41
2023-01-23T09:41:23.933Z,982.49
2023-01-23T09:42:23.902Z,982.52
2023-01-23T09:43:23.885Z,982.50
2023-01-23T09:44:23.858Z,982.40
2023-01-23T09:45:23.841Z,982.40
2023-01-23T09:46:23.939Z,982.47
2023-01-23T09:47:23.807Z,982.40
2023-01-23T09:48:23.778Z,982.42
2023-01-23T09:49:23.763Z,982.35
2023-01-23T09:50:23.871Z,982.44
2023-01-23T09:51:23.837Z,982.35
2023-01-23T09:52:23.703Z,982.36
2023-01-23T09:53:23.700Z,982.34
2023-01-23T09:54:23.662Z,982.42
2023-01-23T09:55:23.646Z,982.32
2023-01-23T09:56:23.622Z,982.31
2023-01-23T09:57:23.605Z,982.35
2023-01-23T09:58:23.589Z,982.25
2023-01-23T09:59:23.567Z,982.41
2023-01-23T10:00:23.688Z,982.38
2023-01-23T10:01:23.590Z,982.43
2023-01-23T10:02:26.562Z,982.37
2023-01-23T10:03:23.489Z,982.31
2023-01-23T10:04:23.508Z,982.32
2023-01-23T10:05:23.474Z,982.33
2023-01-23T10:06:23.475Z,982.37
2023-01-23T10:07:23.411Z,982.24
2023-01-23T10:08:23.397Z,982.23
2023-01-23T10:09:23.385Z,982.20
2023-01-23T10:10:23.679Z,982.32
2023-01-23T10:11:23.341Z,982.25
2023-01-23T10:12:23.328Z,982.14
2023-01-23T10:13:23.306Z,982.15
2023-01-23T10:14:23.295Z,982.19
2023-01-23T10:15:23.282Z,982.10
2023-01-23T10:16:23.279Z,982.19
2023-01-23T10:17:23.259Z,982.21
2023-01-23T10:18:23.324Z,982.20
2023-01-23T10:19:23.178Z,982.23
2023-01-23T10:20:23.489Z,982.24
2023-01-23T10:21:23.140Z,982.17
2023-01-23T10:22:23.389Z,982.19
2023-01-23T10:23:23.100Z,982.41
2023-01-23T10:24:23.820Z,982.19
2023-01-23T10:25:23.381Z,982.22
2023-01-23T10:26:23.041Z,982.26
2023-01-23T10:27:23.023Z,982.32
2023-01-23T10:28:23.002Z,982.26
2023-01-23T10:29:22.993Z,982.17
2023-01-23T10:30:23.535Z,982.17
2023-01-23T10:31:23.112Z,982.20
2023-01-23T10:32:22.923Z,982.15
2023-01-23T10:33:22.911Z,982.19
2023-01-23T10:34:23.008Z,982.29
2023-01-23T10:35:23.287Z,982.04
2023-01-23T10:36:24.086Z,982.08
2023-01-23T10:37:22.825Z,982.15
2023-01-23T10:38:22.809Z,982.09
2023-01-23T10:39:22.789Z,982.25
2023-01-23T10:40:22.882Z,982.10
2023-01-23T10:41:23.517Z,981.91
2023-01-23T10:42:22.732Z,982.05
2023-01-23T10:43:22.711Z,982.14
2023-01-23T10:44:22.687Z,982.02
2023-01-23T10:45:23.002Z,981.99
2023-01-23T10:46:22.734Z,981.97
2023-01-23T10:47:22.630Z,981.94
2023-01-23T10:48:22.611Z,981.97
2023-01-23T10:49:22.593Z,981.98
2023-01-23T10:50:22.685Z,981.99
2023-01-23T10:51:22.629Z,982.07
2023-01-23T10:52:22.530Z,981.87
2023-01-23T10:53:22.513Z,981.95
2023-01-23T10:54:31.970Z,981.85
2023-01-23T10:55:22.897Z,981.84
2023-01-23T10:56:22.453Z,981.89
2023-01-23T10:57:22.441Z,981.98
2023-01-23T10:58:22.412Z,981.97
2023-01-23T10:59:22.398Z,981.84
2023-01-23T11:00:22.376Z,981.84
2023-01-23T11:01:22.408Z,981.80
2023-01-23T11:02:22.513Z,981.87
2023-01-23T11:03:22.321Z,981.85
2023-01-23T11:04:22.345Z,981.95
2023-01-23T11:05:22.453Z,981.79
2023-01-23T11:06:22.373Z,981.92
2023-01-23T11:07:22.246Z,981.81
2023-01-23T11:08:22.217Z,981.82
2023-01-23T11:09:22.197Z,981.83
2023-01-23T11:10:22.186Z,981.89
2023-01-23T11:11:22.158Z,981.75
2023-01-23T11:12:22.142Z,981.78
2023-01-23T11:13:22.121Z,981.90
2023-01-23T11:14:22.106Z,981.75
2023-01-23T11:15:22.559Z,981.69
2023-01-23T11:16:22.268Z,981.67
2023-01-23T11:17:22.042Z,981.64
2023-01-23T11:18:22.025Z,981.76
2023-01-23T11:19:22.004Z,981.73
2023-01-23T11:20:21.989Z,981.70
2023-01-23T11:21:21.965Z,981.67
2023-01-23T11:22:22.079Z,981.64
2023-01-23T11:23:21.923Z,981.66
2023-01-23T11:24:27.767Z,981.58
2023-01-23T11:25:22.185Z,981.50
2023-01-23T11:26:21.869Z,981.58
2023-01-23T11:27:21.845Z,981.57
2023-01-23T11:28:21.832Z,981.52
2023-01-23T11:29:21.806Z,981.58
2023-01-23T11:30:21.792Z,981.55
2023-01-23T11:31:22.009Z,981.51
2023-01-23T11:32:21.920Z,981.46
2023-01-23T11:33:21.729Z,981.47
2023-01-23T11:34:21.720Z,981.44
2023-01-23T11:35:22.220Z,981.44
2023-01-23T11:36:21.674Z,981.39
2023-01-23T11:37:21.652Z,981.49
2023-01-23T11:38:30.287Z,981.46
2023-01-23T11:39:21.612Z,981.50
2023-01-23T11:40:21.594Z,981.34
2023-01-23T11:41:21.584Z,981.34
2023-01-23T11:42:21.559Z,981.32
2023-01-23T11:43:21.532Z,981.29
2023-01-23T11:44:22.998Z,981.32
2023-01-23T11:45:21.744Z,981.22
2023-01-23T11:46:21.553Z,981.20
2023-01-23T11:47:21.456Z,981.35
2023-01-23T11:48:21.444Z,981.20
2023-01-23T11:49:21.418Z,981.25
2023-01-23T11:50:21.400Z,981.17
2023-01-23T11:51:21.440Z,981.26
2023-01-23T11:52:21.365Z,981.24
2023-01-23T11:53:27.990Z,981.19
2023-01-23T11:54:21.445Z,981.25
2023-01-23T11:55:21.703Z,981.12
2023-01-23T11:56:21.293Z,981.21
2023-01-23T11:57:21.262Z,981.19
2023-01-23T11:58:21.246Z,981.13
2023-01-23T11:59:21.238Z,981.12
2023-01-23T12:00:21.572Z,981.29
2023-01-23T12:01:21.188Z,981.10
2023-01-23T12:02:21.186Z,981.09
2023-01-23T12:03:21.149Z,981.03
2023-01-23T12:04:21.129Z,981.14
2023-01-23T12:05:21.300Z,981.07
2023-01-23T12:06:21.089Z,981.01
2023-01-23T12:07:21.084Z,981.00
2023-01-23T12:08:21.057Z,981.05
2023-01-23T12:09:21.039Z,980.94
2023-01-23T12:10:21.031Z,980.94
2023-01-23T12:11:20.989Z,980.93
2023-01-23T12:12:20.979Z,980.99
2023-01-23T12:13:20.950Z,981.01
2023-01-23T12:14:20.941Z,980.99
2023-01-23T12:15:20.911Z,980.97
2023-01-23T12:16:20.940Z,981.00
2023-01-23T12:17:20.875Z,980.99
2023-01-23T12:18:20.855Z,981.00
2023-01-23T12:19:20.834Z,980.90
2023-01-23T12:20:20.973Z,980.83
2023-01-23T12:21:20.831Z,980.89
2023-01-23T12:22:20.781Z,980.95
2023-01-23T12:23:20.769Z,980.90
2023-01-23T12:24:20.740Z,980.81
2023-01-23T12:25:20.989Z,980.81
2023-01-23T12:26:20.820Z,980.80
2023-01-23T12:27:20.683Z,980.79
2023-01-23T12:28:20.664Z,980.81
2023-01-23T12:29:20.640Z,980.75
2023-01-23T12:30:21.014Z,980.72